Entebbe, Uganda
Current Conditions -  °F | °C
As of 7:55 AM on Friday 31 Oct 2014 (Local Time) from KQUD Reporting Station
Rain Showers Rain Showers  
Wind Chill: 67°   Ceiling: Unl
Heat Index: 67°   Visibility: 10mi
Dew Point: 64°   Wind: 1mph
Humidity: 89%   Direction: 30°NNE
Pressure: 30.18"   Gusts: NA
Location:  0.06°N, 32.46°E
Report Text: KQUD 310455Z AUTO 03001KT 10SM -SHRA CLR 20/18 A3018 RMK AO2 RAB0426E0444SHRAB0444 SLP177 P0000 T01950177
Loading
Personal Weather Stations






























Interactive Weather Map
Tropical Storm Tracking
New forecast layout! Learn more

10-Day Weather Forecast

Advertisements
Track Severe Weather on mobile